CheckWX is a tool to help pilots better visualize weather data.  It is not intended as a substitute for an official pre-flight weather briefing.

10:45:01 UTC

EGLC METAR
London City Airport
London, United Kingdom
Current

25 mins ago

EGLC 241020Z AUTO 24019G30KT 7000 BKN013 OVC022 12/09 Q1008
Observed
Feb-24 @ 10:20 UTC
Wind
  • 240° at 19 KTS
  • Gusting to 30 KTS
Visibility
7,000 meters
Flight Rules
MVFR
Cloud Levels
  • Broken at 1,300' AGL
  • Overcast at 2,200' AGL
Temperature
12°C / 54°F
Dewpoint
C / 48°F
Humidity
82%
Altimeter
29.76" Hg
Pressure
1007.92 hPa
Previous

55 mins ago

EGLC 240950Z AUTO 24020G34KT 7000 BKN018 BKN023 12/09 Q1008
Observed
Feb-24 @ 09:50 UTC
Wind
  • 240° at 20 KTS
  • Gusting to 34 KTS
Visibility
7,000 meters
Flight Rules
MVFR
Cloud Levels
  • Broken at 1,800' AGL
  • Broken at 2,300' AGL
Temperature
12°C / 54°F
Dewpoint
C / 48°F
Humidity
82%
Altimeter
29.76" Hg
Pressure
1007.92 hPa
Previous

1 hour ago

EGLC 240920Z AUTO 23020G33KT 9999 SCT021 BKN026 12/08 Q1009
Observed
Feb-24 @ 09:20 UTC
Wind
  • 230° at 20 KTS
  • Gusting to 33 KTS
Visibility
10,000+ meters
Flight Rules
MVFR
Cloud Levels
  • Scattered at 2,100' AGL
  • Broken at 2,600' AGL
Temperature
12°C / 54°F
Dewpoint
C / 46°F
Humidity
77%
Altimeter
29.79" Hg
Pressure
1008.92 hPa